Time;durP1;ratioP1;P1;durP2;ratioP2;P2;SDS_P1;SDS_P2;PMS_P1;PMS_P2;Temp;Humidity;BMP_temperature;BMP_pressure;BME280_temperature;BME280_humidity;BME280_pressure;Samples;Min_cycle;Max_cycle;Signal;HPM_P1;HPM_P2
2022/08/01 00:01:16;;;;;;;11.65;7.32;;;;;;;19.38;100.00;101483.91;5176005;27;20038;-60
2022/08/01 00:03:45;;;;;;;12.90;8.32;;;;;;;19.37;100.00;101484.06;5176436;27;20551;-59
2022/08/01 00:06:13;;;;;;;13.95;8.82;;;;;;;19.24;100.00;101490.53;5175097;27;20426;-60
2022/08/01 00:08:41;;;;;;;13.88;9.00;;;;;;;19.28;100.00;101487.56;5172840;27;20073;-60
2022/08/01 00:11:10;;;;;;;14.43;8.20;;;;;;;19.36;100.00;101491.22;5175489;27;20123;-58
2022/08/01 00:13:38;;;;;;;12.63;8.90;;;;;;;19.31;100.00;101490.81;5176636;27;20050;-59
2022/08/01 00:16:06;;;;;;;13.05;8.80;;;;;;;19.26;100.00;101498.38;5173916;27;20057;-60
2022/08/01 00:18:35;;;;;;;13.82;8.88;;;;;;;19.31;100.00;101496.16;5155357;27;20046;-61
2022/08/01 00:21:05;;;;;;;14.73;9.15;;;;;;;19.32;100.00;101489.84;5176471;27;20042;-60
2022/08/01 00:23:33;;;;;;;16.80;10.40;;;;;;;19.32;100.00;101489.84;5176466;27;20045;-58
2022/08/01 00:26:01;;;;;;;13.98;9.85;;;;;;;19.39;100.00;101484.78;5176397;27;20435;-58
2022/08/01 00:28:29;;;;;;;15.20;9.82;;;;;;;19.33;100.00;101490.66;5176224;27;20057;-60
2022/08/01 00:30:57;;;;;;;15.65;9.68;;;;;;;19.23;100.00;101488.00;5176351;27;20445;-60
2022/08/01 00:33:25;;;;;;;15.38;10.52;;;;;;;19.19;100.00;101490.09;5176260;27;20495;-60
2022/08/01 00:35:53;;;;;;;17.05;10.18;;;;;;;19.23;100.00;101493.34;5175968;27;20047;-61
2022/08/01 00:38:23;;;;;;;14.63;10.32;;;;;;;19.17;100.00;101496.56;5175958;27;20442;-59
2022/08/01 00:40:53;;;;;;;16.90;10.40;;;;;;;19.15;100.00;101493.22;5175760;27;20103;-58
2022/08/01 00:43:21;;;;;;;14.38;10.05;;;;;;;19.18;100.00;101488.44;5175546;27;20043;-60
2022/08/01 00:45:49;;;;;;;14.38;9.98;;;;;;;19.11;100.00;101487.31;5176243;27;20042;-59
2022/08/01 00:48:17;;;;;;;15.00;9.85;;;;;;;19.06;100.00;101487.75;5175386;27;20396;-59
2022/08/01 00:50:46;;;;;;;13.73;9.60;;;;;;;19.12;100.00;101489.00;5175483;27;20077;-60
2022/08/01 00:53:14;;;;;;;16.08;10.02;;;;;;;19.15;100.00;101487.88;5172784;27;20042;-58
2022/08/01 00:55:48;;;;;;;13.90;9.25;;;;;;;19.20;100.00;101490.97;5173465;27;20050;-58
2022/08/01 00:58:16;;;;;;;15.32;9.68;;;;;;;19.06;100.00;101487.75;5175813;27;20102;-60
2022/08/01 01:00:44;;;;;;;12.35;9.27;;;;;;;19.02;100.00;101489.00;5175372;27;20070;-59
2022/08/01 01:03:22;;;;;;;16.25;9.85;;;;;;;19.00;100.00;101490.94;5175841;27;20496;-59
2022/08/01 01:06:24;;;;;;;12.35;8.93;;;;;;;19.03;100.00;101488.03;5157082;27;20508;-58
2022/08/01 01:09:10;;;;;;;14.88;10.02;;;;;;;19.08;100.00;101488.44;5172280;27;20066;-61
2022/08/01 01:11:48;;;;;;;16.90;10.88;;;;;;;19.14;100.00;101492.38;5174301;27;20046;-57
2022/08/01 01:14:28;;;;;;;15.30;10.70;;;;;;;19.07;100.00;101488.56;5175606;27;20439;-60
2022/08/01 01:16:59;;;;;;;16.65;10.63;;;;;;;19.09;100.00;101489.28;5175382;27;20050;-61
2022/08/01 01:19:33;;;;;;;16.35;12.27;;;;;;;19.13;100.00;101489.81;5175286;27;20042;-61
2022/08/01 01:22:28;;;;;;;16.80;12.30;;;;;;;19.11;100.00;101491.81;5175410;27;20046;-61
2022/08/01 01:25:08;;;;;;;16.38;12.50;;;;;;;19.08;100.00;101491.09;5175101;27;20035;-61
2022/08/01 01:27:52;;;;;;;17.63;13.00;;;;;;;19.06;100.00;101495.72;5175268;27;20534;-61
2022/08/01 01:30:24;;;;;;;18.50;12.80;;;;;;;19.06;100.00;101490.41;5175249;27;20046;-59
2022/08/01 01:32:54;;;;;;;19.60;11.95;;;;;;;19.07;100.00;101492.09;5174875;27;20050;-62
2022/08/01 01:35:26;;;;;;;16.38;11.75;;;;;;;19.04;100.00;101495.00;5174902;27;20042;-62
2022/08/01 01:37:59;;;;;;;17.27;11.80;;;;;;;19.05;100.00;101499.38;5173700;27;20050;-62
2022/08/01 01:40:30;;;;;;;17.05;11.25;;;;;;;19.05;100.00;101490.53;5172580;27;20539;-60
2022/08/01 01:42:59;;;;;;;17.08;10.57;;;;;;;18.96;100.00;101499.38;5173395;27;20053;-62
2022/08/01 01:45:30;;;;;;;15.43;10.45;;;;;;;18.99;100.00;101488.44;5174400;27;20121;-60
2022/08/01 01:47:59;;;;;;;16.65;11.18;;;;;;;18.99;100.00;101499.94;5172338;27;20538;-62
2022/08/01 01:50:29;;;;;;;16.38;11.27;;;;;;;18.98;100.00;101498.25;5172231;27;20043;-60
2022/08/01 01:52:58;;;;;;;14.88;10.25;;;;;;;18.93;100.00;101500.50;5174833;27;20061;-61
2022/08/01 01:55:27;;;;;;;14.95;10.55;;;;;;;18.96;100.00;101497.53;5156126;27;20046;-58
2022/08/01 01:57:57;;;;;;;14.48;10.50;;;;;;;18.98;100.00;101503.59;5175043;27;20054;-59
2022/08/01 02:00:30;;;;;;;15.82;10.60;;;;;;;18.96;100.00;101494.88;5172525;27;20042;-61
2022/08/01 02:02:59;;;;;;;15.63;9.98;;;;;;;18.94;100.00;101491.53;5172126;27;20046;-58
2022/08/01 02:05:29;;;;;;;15.02;9.20;;;;;;;18.97;100.00;101499.22;5173345;27;20050;-59
2022/08/01 02:07:58;;;;;;;15.05;9.77;;;;;;;18.91;100.00;101487.31;5170837;27;20050;-58
2022/08/01 02:10:27;;;;;;;15.80;9.50;;;;;;;18.94;100.00;101493.31;5173669;27;20484;-59
2022/08/01 02:12:58;;;;;;;13.02;8.40;;;;;;;18.93;100.00;101492.50;5174425;27;20093;-61
2022/08/01 02:15:29;;;;;;;13.45;8.02;;;;;;;18.99;100.00;101491.94;5174487;27;20043;-61
2022/08/01 02:17:58;;;;;;;13.63;8.45;;;;;;;19.02;100.00;101496.13;5174578;27;20436;-61
2022/08/01 02:20:29;;;;;;;12.20;7.60;;;;;;;19.01;100.00;101503.31;5172152;27;20564;-61
2022/08/01 02:23:02;;;;;;;15.45;8.50;;;;;;;18.95;100.00;101503.88;5170215;27;20044;-61
2022/08/01 02:25:34;;;;;;;13.40;8.20;;;;;;;18.96;100.00;101502.03;5155693;27;20057;-59
2022/08/01 02:28:07;;;;;;;13.52;8.20;;;;;;;18.93;100.00;101500.50;5174535;27;20121;-58
2022/08/01 02:30:42;;;;;;;14.55;8.20;;;;;;;18.91;100.00;101497.13;5174385;27;20087;-58
2022/08/01 02:33:17;;;;;;;13.75;7.78;;;;;;;18.91;100.00;101489.13;5174851;27;20046;-58
2022/08/01 02:35:49;;;;;;;12.60;7.90;;;;;;;18.91;100.00;101489.13;5174274;27;20053;-61
2022/08/01 02:38:42;;;;;;;12.18;6.80;;;;;;;18.83;100.00;101489.78;5174265;27;20046;-60
2022/08/01 02:41:15;;;;;;;14.18;8.82;;;;;;;18.79;100.00;101488.38;5174507;27;20501;-61
2022/08/01 02:43:46;;;;;;;;;;;;;;;18.78;100.00;101485.88;5174631;27;20053;-61
2022/08/01 02:46:26;;;;;;;13.82;8.02;;;;;;;18.69;100.00;101492.84;5152469;27;19922;-58
2022/08/01 02:48:59;;;;;;;16.23;9.00;;;;;;;18.58;100.00;101485.81;5172123;27;20051;-61
2022/08/01 02:51:28;;;;;;;13.68;7.97;;;;;;;18.63;100.00;101494.25;5174304;27;20048;-60
2022/08/01 02:53:58;;;;;;;16.15;9.10;;;;;;;18.57;100.00;101500.97;5173853;27;20075;-60
2022/08/01 02:56:34;;;;;;;16.48;8.93;;;;;;;18.58;100.00;101496.47;5174911;27;20071;-58
2022/08/01 02:59:06;;;;;;;16.98;8.93;;;;;;;18.63;100.00;101504.06;5175893;27;20408;-58
2022/08/01 03:01:37;;;;;;;16.08;8.95;;;;;;;18.65;100.00;101507.41;5177839;27;20039;-58
2022/08/01 03:04:09;;;;;;;14.38;7.97;;;;;;;18.67;100.00;101502.81;5177909;27;20038;-59
2022/08/01 03:06:38;;;;;;;17.08;9.07;;;;;;;18.69;100.00;101503.50;5177714;27;20042;-59
2022/08/01 03:09:09;;;;;;;17.00;8.75;;;;;;;18.72;100.00;101497.91;5177824;27;20541;-58
2022/08/01 03:11:40;;;;;;;15.65;9.07;;;;;;;18.69;100.00;101496.38;5177793;27;20045;-57
2022/08/01 03:14:10;;;;;;;15.52;8.02;;;;;;;18.65;100.00;101497.63;5159027;27;20553;-58
2022/08/01 03:16:44;;;;;;;13.93;7.55;;;;;;;18.62;100.00;101495.22;5177550;27;20042;-58
2022/08/01 03:19:14;;;;;;;14.90;8.60;;;;;;;18.56;100.00;101501.09;5178013;27;20129;-58
2022/08/01 03:21:45;;;;;;;15.25;8.20;;;;;;;18.60;100.00;101499.84;5177537;27;20107;-59
2022/08/01 03:24:15;;;;;;;14.98;8.15;;;;;;;18.61;100.00;101501.53;5176903;27;20088;-59
2022/08/01 03:26:45;;;;;;;15.18;8.18;;;;;;;18.60;100.00;101507.84;5174996;27;20054;-58
2022/08/01 03:29:17;;;;;;;13.60;8.20;;;;;;;18.56;100.00;101509.09;5176627;27;20057;-59
2022/08/01 03:31:49;;;;;;;14.05;9.35;;;;;;;18.55;100.00;101500.25;5175391;27;20045;-59
2022/08/01 03:34:20;;;;;;;12.70;7.60;;;;;;;18.51;100.00;101495.34;5174451;27;20046;-59
2022/08/01 03:36:50;;;;;;;12.30;6.57;;;;;;;18.47;100.00;101493.91;5177302;27;20046;-59
2022/08/01 03:39:22;;;;;;;9.23;4.97;;;;;;;18.43;100.00;101498.66;5158663;27;20054;-59
2022/08/01 03:41:56;;;;;;;9.45;5.10;;;;;;;18.39;100.00;101498.13;5177080;27;20039;-58
2022/08/01 03:44:28;;;;;;;10.32;4.28;;;;;;;18.41;100.00;101497.97;5177102;27;20038;-60
2022/08/01 03:47:01;;;;;;;8.60;4.55;;;;;;;18.48;100.00;101495.63;5176890;27;20046;-59
2022/08/01 03:49:32;;;;;;;6.50;3.20;;;;;;;18.54;100.00;101503.03;5175789;27;20548;-58
2022/08/01 03:52:04;;;;;;;7.22;3.55;;;;;;;18.52;100.00;101499.69;5173596;27;20042;-60
2022/08/01 03:54:36;;;;;;;8.00;3.00;;;;;;;18.45;100.00;101501.19;5175451;27;20065;-58
2022/08/01 03:57:06;;;;;;;6.63;3.00;;;;;;;18.54;100.00;101505.72;5158103;27;20500;-59
2022/08/01 03:59:37;;;;;;;6.43;3.10;;;;;;;18.56;100.00;101509.91;5174147;27;20042;-60
2022/08/01 04:02:08;;;;;;;5.57;2.80;;;;;;;18.56;100.00;101507.25;5156022;27;20050;-58
2022/08/01 04:04:36;;;;;;;7.18;2.95;;;;;;;18.50;100.00;101509.63;5176571;27;20034;-59
2022/08/01 04:07:06;;;;;;;5.72;2.70;;;;;;;18.51;100.00;101508.66;5173027;27;20166;-60
2022/08/01 04:09:34;;;;;;;7.57;3.40;;;;;;;18.52;100.00;101507.69;5154908;27;20739;-60
2022/08/01 04:12:02;;;;;;;6.75;3.17;;;;;;;18.51;100.00;101516.63;5176415;27;20046;-59
2022/08/01 04:14:39;;;;;;;6.75;3.58;;;;;;;18.53;100.00;101515.53;5176780;27;20045;-60
2022/08/01 04:17:09;;;;;;;7.82;3.72;;;;;;;18.54;100.00;101511.03;5176717;27;20042;-60
2022/08/01 04:19:37;;;;;;;7.22;4.22;;;;;;;18.52;100.00;101507.69;5174549;27;20065;-60
2022/08/01 04:22:05;;;;;;;8.05;4.45;;;;;;;18.56;100.00;101509.91;5172751;27;20714;-60
2022/08/01 04:24:37;;;;;;;7.85;4.07;;;;;;;18.56;100.00;101503.75;5175180;27;20179;-58
2022/08/01 04:27:10;;;;;;;9.55;4.47;;;;;;;18.57;100.00;101513.44;5173718;27;20385;-59
2022/08/01 04:29:39;;;;;;;7.85;4.40;;;;;;;18.54;100.00;101509.22;5175019;27;20046;-60
2022/08/01 04:32:12;;;;;;;8.88;4.43;;;;;;;18.54;100.00;101506.56;5176131;27;20095;-60
2022/08/01 04:34:42;;;;;;;;;;;;;;;18.52;100.00;101519.16;5158111;27;20053;-59
2022/08/01 04:37:11;;;;;;;9.18;4.93;;;;;;;18.50;100.00;101520.28;5176358;27;19918;-60
2022/08/01 04:39:42;;;;;;;7.90;4.65;;;;;;;18.45;100.00;101518.03;5176103;27;20500;-59
2022/08/01 04:42:18;;;;;;;13.02;4.90;;;;;;;18.45;100.00;101518.03;5175883;27;20077;-59
2022/08/01 04:44:58;;;;;;;9.27;5.10;;;;;;;18.45;100.00;101527.81;5176064;27;20046;-60
2022/08/01 04:47:28;;;;;;;8.20;5.32;;;;;;;18.49;100.00;101534.59;5175867;27;20141;-60
2022/08/01 04:49:57;;;;;;;9.43;5.07;;;;;;;18.56;100.00;101535.72;5174579;27;20046;-61
2022/08/01 04:52:34;;;;;;;10.10;5.28;;;;;;;18.53;100.00;101542.16;5172069;27;20046;-58
2022/08/01 04:55:02;;;;;;;9.57;5.32;;;;;;;18.49;100.00;101540.75;5174999;27;20050;-58
2022/08/01 04:57:32;;;;;;;9.77;5.82;;;;;;;18.50;100.00;101541.56;5157449;27;20057;-60
2022/08/01 05:00:02;;;;;;;10.35;5.75;;;;;;;18.52;100.00;101545.78;5157225;27;20092;-58
2022/08/01 05:02:31;;;;;;;8.27;5.90;;;;;;;18.53;100.00;101550.16;5174380;27;20042;-58
2022/08/01 05:04:59;;;;;;;11.02;6.68;;;;;;;18.48;100.00;101547.03;5172758;27;20041;-60
2022/08/01 05:07:27;;;;;;;9.73;6.35;;;;;;;18.47;100.00;101549.84;5173731;27;20117;-58
2022/08/01 05:09:55;;;;;;;11.02;6.22;;;;;;;18.49;100.00;101550.56;5175292;27;20068;-60
2022/08/01 05:12:23;;;;;;;10.82;6.53;;;;;;;18.49;100.00;101550.56;5174808;27;20125;-60
2022/08/01 05:14:51;;;;;;;10.75;6.78;;;;;;;18.47;100.00;101552.50;5173222;27;20056;-60
2022/08/01 05:17:20;;;;;;;9.95;6.43;;;;;;;18.50;100.00;101560.22;5154720;27;20073;-60
2022/08/01 05:19:50;;;;;;;9.25;5.97;;;;;;;18.54;100.00;101557.16;5173909;27;20069;-60
2022/08/01 05:22:18;;;;;;;9.55;6.85;;;;;;;18.46;100.00;101551.69;5174777;27;20145;-59
2022/08/01 05:24:46;;;;;;;10.77;7.25;;;;;;;18.41;100.00;101553.88;5174229;27;20090;-59
2022/08/01 05:27:16;;;;;;;11.43;6.60;;;;;;;18.48;100.00;101551.53;5171866;27;20050;-61
2022/08/01 05:29:46;;;;;;;9.02;6.50;;;;;;;18.54;100.00;101559.84;5153935;27;20049;-61
2022/08/01 05:32:14;;;;;;;8.82;5.57;;;;;;;18.57;100.00;101558.72;5174494;27;20034;-58
2022/08/01 05:34:42;;;;;;;10.15;6.07;;;;;;;18.63;100.00;101560.00;5175354;27;20042;-60
2022/08/01 05:37:12;;;;;;;9.20;4.80;;;;;;;18.69;100.00;101565.63;5174603;27;20549;-60
2022/08/01 05:39:40;;;;;;;8.77;5.18;;;;;;;18.67;100.00;101562.25;5174859;27;20054;-61
2022/08/01 05:42:08;;;;;;;8.25;4.95;;;;;;;18.72;100.00;101565.34;5174729;27;20095;-59
2022/08/01 05:44:36;;;;;;;7.88;5.25;;;;;;;18.73;100.00;101569.72;5175042;27;20504;-60
2022/08/01 05:47:04;;;;;;;7.78;4.70;;;;;;;18.70;100.00;101566.47;5174703;27;20041;-57
2022/08/01 05:49:32;;;;;;;8.45;4.80;;;;;;;18.71;100.00;101565.50;5174459;27;20054;-58
2022/08/01 05:52:01;;;;;;;8.02;4.82;;;;;;;18.75;100.00;101567.72;5155573;27;20128;-58
2022/08/01 05:54:32;;;;;;;8.68;5.80;;;;;;;18.82;100.00;101564.53;5171212;27;20042;-59
2022/08/01 05:57:01;;;;;;;8.50;5.15;;;;;;;18.83;100.00;101567.06;5154283;27;20069;-60
2022/08/01 05:59:29;;;;;;;9.48;4.97;;;;;;;18.83;100.00;101574.19;5174650;27;20073;-61
2022/08/01 06:01:58;;;;;;;9.25;5.05;;;;;;;18.81;100.00;101569.00;5174524;27;20046;-58
2022/08/01 06:04:26;;;;;;;7.75;5.03;;;;;;;18.87;100.00;101567.63;5172040;27;20446;-59
2022/08/01 06:06:54;;;;;;;8.77;5.25;;;;;;;18.89;100.00;101571.88;5153000;27;20504;-58
2022/08/01 06:09:22;;;;;;;9.05;5.18;;;;;;;18.91;100.00;101569.09;5174715;27;20110;-60
2022/08/01 06:11:51;;;;;;;8.35;5.88;;;;;;;18.89;100.00;101573.69;5174348;27;20046;-60
2022/08/01 06:14:19;;;;;;;7.88;4.80;;;;;;;18.84;100.00;101579.41;5174656;27;20049;-59
2022/08/01 06:16:48;;;;;;;7.97;4.60;;;;;;;18.86;100.00;101573.94;5172260;27;20129;-60
2022/08/01 06:19:16;;;;;;;8.73;4.88;;;;;;;18.91;100.00;101577.09;5172449;27;20409;-58
2022/08/01 06:21:44;;;;;;;6.72;3.90;;;;;;;18.92;100.00;101578.75;5174080;27;20086;-60
2022/08/01 06:24:12;;;;;;;7.07;3.80;;;;;;;19.06;100.00;101582.84;5174733;27;20046;-59
2022/08/01 06:26:40;;;;;;;7.70;3.10;;;;;;;19.03;100.00;101583.97;5174362;27;20038;-58
2022/08/01 06:29:10;;;;;;;5.55;2.20;;;;;;;18.96;100.00;101584.66;5173956;27;20042;-58
2022/08/01 06:31:39;;;;;;;4.05;1.92;;;;;;;19.06;100.00;101596.16;5178279;27;20038;-58
2022/08/01 06:34:07;;;;;;;2.20;1.60;;;;;;;19.11;100.00;101595.75;5178769;27;20070;-58
2022/08/01 06:36:35;;;;;;;3.95;1.80;;;;;;;19.13;100.00;101596.47;5178624;27;20664;-59
2022/08/01 06:39:04;;;;;;;4.50;1.50;;;;;;;19.04;100.00;101595.47;5178516;27;20038;-60
2022/08/01 06:41:32;;;;;;;3.35;1.40;;;;;;;19.00;100.00;101597.56;5178467;27;20038;-59
2022/08/01 06:44:02;;;;;;;3.75;1.30;;;;;;;19.08;100.00;101592.38;5177945;27;20042;-59
2022/08/01 06:46:31;;;;;;;1.98;1.20;;;;;;;19.09;100.00;101598.56;5159536;27;20057;-59
2022/08/01 06:49:01;;;;;;;3.78;1.65;;;;;;;19.14;100.00;101603.47;5177885;27;20046;-60
2022/08/01 06:51:30;;;;;;;3.08;1.30;;;;;;;19.13;100.00;101599.97;5178349;27;20489;-60
2022/08/01 06:53:58;;;;;;;3.65;1.10;;;;;;;19.21;100.00;101612.59;5178112;27;20038;-59
2022/08/01 06:56:26;;;;;;;2.92;1.30;;;;;;;19.26;100.00;101613.03;5175070;27;20069;-61
2022/08/01 06:58:56;;;;;;;2.53;1.30;;;;;;;19.27;100.00;101609.41;5175865;27;20046;-59
2022/08/01 07:01:24;;;;;;;3.47;1.30;;;;;;;19.33;100.00;101610.66;5177975;27;20042;-60
2022/08/01 07:03:53;;;;;;;3.08;1.40;;;;;;;19.32;100.00;101617.84;5177851;27;20117;-61
2022/08/01 07:06:23;;;;;;;3.92;1.60;;;;;;;19.41;100.00;101609.00;5175224;27;20039;-60
2022/08/01 07:08:52;;;;;;;2.50;1.33;;;;;;;19.53;100.00;101608.84;5174415;27;20090;-60
2022/08/01 07:11:21;;;;;;;2.38;1.33;;;;;;;19.58;100.00;101615.44;5177346;27;20038;-59
2022/08/01 07:13:49;;;;;;;4.57;1.30;;;;;;;19.62;100.00;101613.34;5176696;27;20118;-59
2022/08/01 07:16:18;;;;;;;3.58;1.33;;;;;;;19.58;100.00;101611.97;5175387;27;20046;-59
2022/08/01 07:18:46;;;;;;;5.93;1.27;;;;;;;19.61;100.00;101617.00;5176895;27;20251;-61
2022/08/01 07:21:15;;;;;;;2.33;1.27;;;;;;;19.61;100.00;101622.34;5177605;27;20042;-61
2022/08/01 07:24:04;;;;;;;1.98;1.25;;;;;;;19.70;100.00;101623.31;5177226;27;20038;-62
2022/08/01 07:26:42;;;;;;;2.58;1.38;;;;;;;19.71;100.00;101625.00;5177865;27;20485;-59
2022/08/01 07:29:22;;;;;;;3.95;1.58;;;;;;;19.68;100.00;101626.13;5177775;27;20046;-61
2022/08/01 07:31:51;;;;;;;2.05;1.20;;;;;;;19.70;100.00;101628.66;5178270;27;20488;-59
2022/08/01 07:34:19;;;;;;;2.38;1.35;;;;;;;19.74;100.00;101630.03;5175255;27;20039;-59
2022/08/01 07:36:48;;;;;;;2.83;1.40;;;;;;;19.67;100.00;101636.94;5175104;27;20049;-61
2022/08/01 07:39:17;;;;;;;2.50;1.50;;;;;;;19.71;100.00;101633.84;5177467;27;20056;-61
2022/08/01 07:41:45;;;;;;;4.38;1.80;;;;;;;19.76;100.00;101641.44;5174217;27;20489;-61
2022/08/01 07:44:33;;;;;;;4.25;1.60;;;;;;;19.76;100.00;101644.09;5174713;27;20052;-59
2022/08/01 07:47:01;;;;;;;3.63;1.80;;;;;;;19.76;100.00;101641.44;5177038;27;20486;-59
2022/08/01 07:49:29;;;;;;;5.53;1.70;;;;;;;19.80;100.00;101648.19;5176929;27;20158;-61
2022/08/01 07:52:04;;;;;;;3.83;1.55;;;;;;;19.71;100.00;101647.19;5174726;27;20046;-61
2022/08/01 07:54:33;;;;;;;3.08;1.45;;;;;;;19.90;100.00;101649.03;5154996;27;20512;-61
2022/08/01 07:57:02;;;;;;;3.63;1.85;;;;;;;19.94;100.00;101654.94;5176917;27;20042;-61
2022/08/01 07:59:30;;;;;;;4.25;1.60;;;;;;;19.92;100.00;101654.25;5176291;27;20050;-61
2022/08/01 08:01:58;;;;;;;4.25;1.80;;;;;;;20.03;100.00;101658.59;5174251;27;20050;-61
2022/08/01 08:04:26;;;;;;;3.95;1.60;;;;;;;20.17;100.00;101659.97;5175626;27;20042;-61
2022/08/01 08:06:54;;;;;;;5.50;1.92;;;;;;;20.28;100.00;101667.81;5176654;27;20124;-61
2022/08/01 08:09:24;;;;;;;4.75;1.73;;;;;;;20.22;100.00;101668.38;5176492;27;20061;-61
2022/08/01 08:11:52;;;;;;;3.03;1.50;;;;;;;20.18;100.00;101665.16;5173877;27;20496;-58
2022/08/01 08:14:22;;;;;;;3.38;1.50;;;;;;;20.09;100.00;101674.84;5175046;27;20054;-61
2022/08/01 08:17:00;;;;;;;5.13;1.80;;;;;;;19.99;100.00;101670.50;5176357;27;20090;-58
2022/08/01 08:19:29;;;;;;;4.32;1.65;;;;;;;20.03;100.00;101675.44;5157864;27;20042;-57
2022/08/01 08:22:05;;;;;;;3.10;1.70;;;;;;;20.01;100.00;101676.56;5156981;27;20173;-62
2022/08/01 08:24:36;;;;;;;3.35;1.90;;;;;;;20.01;100.00;101677.41;5173157;27;20045;-61
2022/08/01 08:27:13;;;;;;;3.90;1.80;;;;;;;20.08;100.00;101678.53;5156066;27;20062;-59
2022/08/01 08:29:42;;;;;;;4.68;1.90;;;;;;;20.05;100.00;101681.47;5176408;27;20385;-61
2022/08/01 08:32:10;;;;;;;5.35;1.90;;;;;;;20.03;100.00;101685.28;5175857;27;20460;-61
2022/08/01 08:34:38;;;;;;;5.00;1.90;;;;;;;20.05;100.00;101683.31;5176215;27;20073;-57
2022/08/01 08:37:07;;;;;;;4.05;2.10;;;;;;;20.14;100.00;101676.25;5157529;27;20045;-61
2022/08/01 08:39:37;;;;;;;6.05;1.98;;;;;;;20.15;100.00;101680.63;5176373;27;20068;-61
2022/08/01 08:42:11;;;;;;;4.25;1.95;;;;;;;20.10;100.00;101681.88;5175879;27;20053;-58
2022/08/01 08:44:42;;;;;;;4.65;1.70;;;;;;;20.17;100.00;101684.84;5175932;27;20046;-62
2022/08/01 08:47:15;;;;;;;4.28;2.05;;;;;;;20.24;100.00;101687.78;5175825;27;20038;-59
2022/08/01 08:49:49;;;;;;;3.60;1.80;;;;;;;20.32;100.00;101690.56;5175496;27;20294;-62
2022/08/01 08:52:20;;;;;;;5.90;1.90;;;;;;;20.41;100.00;101695.06;5175716;27;20057;-63
2022/08/01 08:54:52;;;;;;;5.22;2.35;;;;;;;20.50;100.00;101695.19;5173997;27;20042;-59
2022/08/01 08:57:21;;;;;;;5.78;2.10;;;;;;;20.58;100.00;101695.28;5173368;27;20393;-59
2022/08/01 08:59:52;;;;;;;5.07;2.15;;;;;;;20.63;100.00;101698.38;5175842;27;20077;-59
2022/08/01 09:02:20;;;;;;;5.45;1.90;;;;;;;20.73;100.00;101698.38;5175680;27;20042;-59
2022/08/01 09:04:49;;;;;;;6.57;2.00;;;;;;;20.75;100.00;101702.59;5176029;27;20500;-59
2022/08/01 09:07:17;;;;;;;4.75;2.10;;;;;;;20.76;100.00;101701.63;5175415;27;20136;-62
2022/08/01 09:09:48;;;;;;;5.80;2.33;;;;;;;20.72;100.00;101697.53;5175360;27;20042;-60
2022/08/01 09:12:20;;;;;;;3.58;2.13;;;;;;;20.69;100.00;101707.69;5173269;27;20432;-61
2022/08/01 09:14:49;;;;;;;2.97;1.73;;;;;;;20.76;100.00;101701.63;5173827;27;20046;-63
2022/08/01 09:17:18;;;;;;;5.47;2.17;;;;;;;20.82;100.00;101707.34;5174235;27;20050;-59
2022/08/01 09:19:48;;;;;;;5.15;2.17;;;;;;;20.66;100.00;101707.94;5154767;27;20072;-60
2022/08/01 09:22:22;;;;;;;5.47;2.20;;;;;;;20.51;100.00;101708.38;5174775;27;20050;-59
2022/08/01 09:24:59;;;;;;;5.88;2.17;;;;;;;20.62;100.00;101710.06;5175199;27;20042;-59
2022/08/01 09:27:29;;;;;;;6.25;2.38;;;;;;;20.65;100.00;101719.59;5153082;27;20130;-61
2022/08/01 09:30:09;;;;;;;4.60;2.40;;;;;;;20.44;100.00;101721.47;5174082;27;20085;-59
2022/08/01 09:32:54;;;;;;;5.47;1.92;;;;;;;20.36;100.00;101718.69;5174559;27;20145;-59
2022/08/01 09:35:28;;;;;;;7.00;2.53;;;;;;;20.40;100.00;101717.41;5156207;27;20042;-58
2022/08/01 09:38:18;;;;;;;5.28;2.67;;;;;;;20.55;100.00;101730.34;5175245;27;20511;-59
2022/08/01 09:40:49;;;;;;;6.45;2.58;;;;;;;20.41;100.00;101720.91;5174926;27;20061;-57
2022/08/01 09:43:20;;;;;;;5.00;2.40;;;;;;;20.52;100.00;101730.59;5174525;27;20066;-59
2022/08/01 09:45:48;;;;;;;6.13;2.70;;;;;;;20.65;100.00;101735.66;5153498;27;20075;-62
2022/08/01 09:48:20;;;;;;;6.55;2.80;;;;;;;20.74;100.00;101730.28;5173033;27;20099;-62
2022/08/01 09:50:55;;;;;;;6.20;2.45;;;;;;;20.77;100.00;101739.84;5155869;27;20050;-59
2022/08/01 09:53:46;;;;;;;5.40;2.60;;;;;;;20.63;100.00;101749.16;5171563;27;20377;-59
2022/08/01 09:56:21;;;;;;;5.65;2.70;;;;;;;20.57;100.00;101750.56;5173203;27;20569;-58
2022/08/01 09:58:52;;;;;;;5.65;2.30;;;;;;;20.57;100.00;101747.03;5174550;27;20054;-58
2022/08/01 10:01:27;;;;;;;7.13;2.38;;;;;;;20.65;100.00;101744.50;5174644;27;20046;-59
2022/08/01 10:04:10;;;;;;;6.53;2.70;;;;;;;20.57;100.00;101747.91;5175183;27;20381;-62
2022/08/01 10:06:42;;;;;;;6.18;2.67;;;;;;;20.49;100.00;101749.59;5181812;27;20567;-59
2022/08/01 10:09:11;;;;;;;7.75;3.00;;;;;;;20.42;100.00;101750.19;5181307;27;20049;-62
2022/08/01 10:11:43;;;;;;;8.50;2.90;;;;;;;20.50;100.00;101751.28;5181547;27;20038;-59
2022/08/01 10:14:15;;;;;;;5.85;2.95;;;;;;;20.48;100.00;101756.78;5181410;27;20552;-59
2022/08/01 10:16:46;;;;;;;7.45;3.40;;;;;;;20.50;100.00;101752.13;5181678;27;20046;-58
2022/08/01 10:19:25;;;;;;;11.20;3.20;;;;;;;20.59;100.00;101761.13;5179468;27;20042;-58
2022/08/01 10:21:58;;;;;;;9.90;3.58;;;;;;;20.60;100.00;101758.28;5180275;27;20354;-61
2022/08/01 10:24:29;;;;;;;11.98;3.88;;;;;;;20.57;100.00;101763.06;5181525;27;20042;-61
2022/08/01 10:27:05;;;;;;;8.38;3.35;;;;;;;20.52;100.00;101760.84;5179557;27;20125;-62
2022/08/01 10:29:42;;;;;;;9.45;3.40;;;;;;;20.54;100.00;101763.38;5180406;27;20050;-62
2022/08/01 10:32:14;;;;;;;9.70;3.70;;;;;;;20.57;100.00;101763.94;5181435;27;20097;-61
2022/08/01 10:34:43;;;;;;;10.13;3.72;;;;;;;20.69;100.00;101763.78;5181610;27;20465;-61
2022/08/01 10:37:14;;;;;;;9.07;3.28;;;;;;;20.73;100.00;101766.03;5162371;27;20034;-61
2022/08/01 10:39:43;;;;;;;10.48;3.50;;;;;;;20.73;100.00;101760.69;5178170;27;20046;-58
2022/08/01 10:42:13;;;;;;;9.05;3.00;;;;;;;20.86;100.00;101764.84;5179750;27;20046;-59
2022/08/01 10:44:47;;;;;;;9.20;3.10;;;;;;;20.88;100.00;101766.41;5181127;27;20090;-62
2022/08/01 10:47:21;;;;;;;9.80;3.60;;;;;;;21.10;100.00;101765.22;5178791;27;20496;-62
2022/08/01 10:49:59;;;;;;;9.98;3.08;;;;;;;21.05;100.00;101767.50;5177679;27;20061;-62
2022/08/01 10:52:29;;;;;;;10.27;3.22;;;;;;;21.18;100.00;101763.63;5180747;27;20157;-59
2022/08/01 10:55:03;;;;;;;7.13;2.63;;;;;;;21.18;100.00;101767.13;5180610;27;20038;-60
2022/08/01 10:57:43;;;;;;;9.85;3.20;;;;;;;21.42;100.00;101763.94;5179854;27;20132;-59
2022/08/01 11:00:22;;;;;;;9.38;2.88;;;;;;;21.47;100.00;101762.66;5179714;27;20050;-61
2022/08/01 11:03:04;;;;;;;6.82;2.65;;;;;;;21.32;97.38;101764.97;5181516;27;20054;-59
2022/08/01 11:05:34;;;;;;;10.35;2.72;;;;;;;21.41;97.76;101761.41;5182107;27;20046;-62
2022/08/01 11:08:06;;;;;;;7.75;2.28;;;;;;;21.37;98.84;101760.03;5180854;27;20053;-59
2022/08/01 11:10:38;;;;;;;8.63;2.30;;;;;;;21.50;99.45;101763.19;5181578;27;20050;-60
2022/08/01 11:13:08;;;;;;;10.13;3.13;;;;;;;21.55;98.56;101765.44;5179085;27;20043;-59
2022/08/01 11:15:38;;;;;;;8.68;2.28;;;;;;;21.66;98.31;101762.53;5179053;27;20052;-60
2022/08/01 11:18:33;;;;;;;11.18;2.88;;;;;;;21.69;94.35;101764.94;5178105;27;20133;-59
2022/08/01 11:21:05;;;;;;;8.10;2.60;;;;;;;21.54;94.01;101761.94;5177689;27;20042;-62
2022/08/01 11:23:54;;;;;;;8.73;2.35;;;;;;;21.80;95.97;101763.03;5178129;27;20355;-63
2022/08/01 11:26:25;;;;;;;7.68;2.05;;;;;;;21.86;94.09;101752.56;5158982;27;20046;-62
2022/08/01 11:29:15;;;;;;;7.32;2.65;;;;;;;22.10;94.14;101756.44;5158433;27;20042;-62
2022/08/01 11:31:51;;;;;;;6.07;2.33;;;;;;;22.16;92.30;101763.03;5176497;27;20042;-63
2022/08/01 11:34:20;;;;;;;6.85;2.20;;;;;;;22.41;93.85;101754.22;5175006;27;20042;-59